createdAt,value
2017-10-14T00:01:22.267Z,92.50
2017-10-14T00:03:49.824Z,92.60
2017-10-14T00:06:17.781Z,92.60
2017-10-14T00:08:45.325Z,92.60
2017-10-14T00:11:12.857Z,92.70
2017-10-14T00:13:40.788Z,92.80
2017-10-14T00:16:08.308Z,92.80
2017-10-14T00:18:35.854Z,93.00
2017-10-14T00:21:03.389Z,93.00
2017-10-14T00:23:30.921Z,93.00
2017-10-14T00:25:58.484Z,92.90
2017-10-14T00:28:26.404Z,93.00
2017-10-14T00:30:53.964Z,93.00
2017-10-14T00:33:22.002Z,93.20
2017-10-14T00:35:49.565Z,93.00
2017-10-14T00:38:17.109Z,93.00
2017-10-14T00:40:44.624Z,92.90
2017-10-14T00:43:12.154Z,92.80
2017-10-14T00:45:39.718Z,92.80
2017-10-14T00:48:07.266Z,92.60
2017-10-14T00:50:34.814Z,92.60
2017-10-14T00:53:02.407Z,92.50
2017-10-14T00:55:29.924Z,92.60
2017-10-14T00:57:57.486Z,92.30
2017-10-14T01:00:25.036Z,92.40
2017-10-14T01:02:52.579Z,92.30
2017-10-14T01:05:20.537Z,92.40
2017-10-14T01:07:48.076Z,92.40
2017-10-14T01:10:15.641Z,92.20
2017-10-14T01:12:43.170Z,92.30
2017-10-14T01:15:11.109Z,92.70
2017-10-14T01:17:38.642Z,92.70
2017-10-14T01:20:06.169Z,92.60
2017-10-14T01:22:33.745Z,92.90
2017-10-14T01:25:01.292Z,93.00
2017-10-14T01:27:28.856Z,92.80
2017-10-14T01:29:56.395Z,92.90
2017-10-14T01:32:23.975Z,93.00
2017-10-14T01:34:51.504Z,93.10
2017-10-14T01:37:19.034Z,93.20
2017-10-14T01:39:46.595Z,93.40
2017-10-14T01:42:14.116Z,93.70
2017-10-14T01:44:41.661Z,93.40
2017-10-14T01:47:09.199Z,93.60
2017-10-14T01:49:36.764Z,93.50
2017-10-14T01:52:04.703Z,93.30
2017-10-14T01:54:32.247Z,93.30
2017-10-14T01:56:59.793Z,93.10
2017-10-14T01:59:27.339Z,93.10
2017-10-14T02:01:54.886Z,93.00
2017-10-14T02:04:22.412Z,93.10
2017-10-14T02:06:50.011Z,93.20
2017-10-14T02:09:17.539Z,93.30
2017-10-14T02:11:45.502Z,93.40
2017-10-14T02:14:13.046Z,93.40
2017-10-14T02:16:40.572Z,93.70
2017-10-14T02:19:08.528Z,93.80
2017-10-14T02:21:36.056Z,93.80
2017-10-14T02:24:03.604Z,93.50
2017-10-14T02:26:31.136Z,93.60
2017-10-14T02:28:58.767Z,93.60
2017-10-14T02:31:26.350Z,93.80
2017-10-14T02:33:53.920Z,93.80
2017-10-14T02:36:21.446Z,94.10
2017-10-14T02:38:49.380Z,94.10
2017-10-14T02:41:16.945Z,94.10
2017-10-14T02:43:44.469Z,94.10
2017-10-14T02:46:12.431Z,93.80
2017-10-14T02:48:39.973Z,93.80
2017-10-14T02:51:07.536Z,94.10
2017-10-14T02:53:35.078Z,94.10
2017-10-14T02:56:02.653Z,94.20
2017-10-14T02:58:30.194Z,94.20
2017-10-14T03:00:57.723Z,94.30
2017-10-14T03:03:25.273Z,94.50
2017-10-14T03:05:52.843Z,94.60
2017-10-14T03:08:20.397Z,94.50
2017-10-14T03:10:47.948Z,94.50
2017-10-14T03:13:15.490Z,94.10
2017-10-14T03:15:43.021Z,94.00
2017-10-14T03:18:10.615Z,93.80
2017-10-14T03:20:38.159Z,93.70
2017-10-14T03:23:05.697Z,93.70
2017-10-14T03:25:33.249Z,93.90
2017-10-14T03:28:00.777Z,94.00
2017-10-14T03:30:28.346Z,94.20
2017-10-14T03:32:55.887Z,94.40
2017-10-14T03:35:23.426Z,94.00
2017-10-14T03:37:50.975Z,94.00
2017-10-14T03:40:18.532Z,94.20
2017-10-14T03:42:46.073Z,94.40
2017-10-14T03:45:13.615Z,94.30
2017-10-14T03:47:41.172Z,93.70
2017-10-14T03:50:08.704Z,93.60
2017-10-14T03:52:36.668Z,94.20
2017-10-14T03:55:04.198Z,94.20
2017-10-14T03:57:31.751Z,94.40
2017-10-14T03:59:59.311Z,94.10
2017-10-14T04:02:27.268Z,94.00
2017-10-14T04:04:54.816Z,94.00
2017-10-14T04:07:22.366Z,94.20
2017-10-14T04:09:49.917Z,94.30
2017-10-14T04:12:17.453Z,94.70
2017-10-14T04:14:45.440Z,95.00
2017-10-14T04:17:13.365Z,95.20
2017-10-14T04:19:40.917Z,95.20
2017-10-14T04:22:08.454Z,95.20
2017-10-14T04:24:36.080Z,94.70
2017-10-14T04:27:03.611Z,94.60
2017-10-14T04:29:31.552Z,95.20
2017-10-14T04:31:59.107Z,95.20
2017-10-14T04:34:26.665Z,95.40
2017-10-14T04:36:54.222Z,95.80
2017-10-14T04:39:21.817Z,95.80
2017-10-14T04:41:49.370Z,95.40
2017-10-14T04:44:17.297Z,94.80
2017-10-14T04:46:44.848Z,94.80
2017-10-14T04:49:12.391Z,94.30
2017-10-14T04:51:40.362Z,94.60
2017-10-14T04:54:08.302Z,94.60
2017-10-14T04:56:35.858Z,94.60
2017-10-14T04:59:03.415Z,93.80
2017-10-14T05:01:30.953Z,94.10
2017-10-14T05:03:58.519Z,94.40
2017-10-14T05:06:26.066Z,94.30
2017-10-14T05:08:53.619Z,94.10
2017-10-14T05:11:21.175Z,94.10
2017-10-14T05:13:48.747Z,94.30
2017-10-14T05:16:16.334Z,94.30
2017-10-14T05:18:43.868Z,94.30
2017-10-14T05:21:11.828Z,94.30
2017-10-14T05:23:39.790Z,94.30
2017-10-14T05:26:07.366Z,94.30
2017-10-14T05:28:34.909Z,94.30
2017-10-14T05:31:02.474Z,94.50
2017-10-14T05:33:30.018Z,94.40
2017-10-14T05:35:57.999Z,94.00
2017-10-14T05:38:25.928Z,94.10
2017-10-14T05:40:53.482Z,94.10
2017-10-14T05:43:21.032Z,94.20
2017-10-14T05:45:48.580Z,94.50
2017-10-14T05:48:16.145Z,94.60
2017-10-14T05:50:43.709Z,93.90
2017-10-14T05:53:11.271Z,93.70
2017-10-14T05:55:38.792Z,93.90
2017-10-14T05:58:06.363Z,94.10
2017-10-14T06:00:33.892Z,94.30
2017-10-14T06:03:01.485Z,94.60
2017-10-14T06:05:29.449Z,94.80
2017-10-14T06:07:56.988Z,94.80
2017-10-14T06:10:24.529Z,94.70
2017-10-14T06:12:52.086Z,94.30
2017-10-14T06:15:19.648Z,94.30
2017-10-14T06:17:47.587Z,94.60
2017-10-14T06:20:15.213Z,94.60
2017-10-14T06:22:42.808Z,94.50
2017-10-14T06:25:10.388Z,94.50
2017-10-14T06:27:37.915Z,94.60
2017-10-14T06:30:05.896Z,94.80
2017-10-14T06:32:33.841Z,94.80
2017-10-14T06:35:01.386Z,94.80
2017-10-14T06:37:28.956Z,95.00
2017-10-14T06:39:56.489Z,95.40
2017-10-14T06:42:24.049Z,96.60
2017-10-14T06:44:51.596Z,96.50
2017-10-14T06:47:19.147Z,95.50
2017-10-14T06:49:46.689Z,95.40
2017-10-14T06:52:14.655Z,96.00
2017-10-14T06:54:42.189Z,95.90
2017-10-14T06:57:09.720Z,96.00
2017-10-14T06:59:37.677Z,96.60
2017-10-14T07:02:05.221Z,96.60
2017-10-14T07:04:32.773Z,98.00
2017-10-14T07:07:00.310Z,98.90
2017-10-14T07:09:27.860Z,99.80
2017-10-14T07:11:55.426Z,99.90
2017-10-14T07:14:22.985Z,99.90
2017-10-14T07:16:50.566Z,99.90
2017-10-14T07:19:18.101Z,99.90
2017-10-14T07:21:45.673Z,99.40
2017-10-14T07:24:13.202Z,99.00
2017-10-14T07:26:40.770Z,98.50
2017-10-14T07:29:08.315Z,98.60
2017-10-14T07:31:35.871Z,99.50
2017-10-14T07:34:03.410Z,99.80
2017-10-14T07:36:31.363Z,98.40
2017-10-14T07:38:58.880Z,98.40
2017-10-14T07:41:26.451Z,98.20
2017-10-14T07:43:53.975Z,97.50
2017-10-14T07:46:21.514Z,96.80
2017-10-14T07:48:49.078Z,96.90
2017-10-14T07:51:16.610Z,95.30
2017-10-14T07:53:44.554Z,93.90
2017-10-14T07:56:12.083Z,93.90
2017-10-14T07:58:39.634Z,93.00
2017-10-14T08:01:07.553Z,92.50
2017-10-14T08:03:35.099Z,92.50
2017-10-14T08:06:03.019Z,90.10
2017-10-14T08:08:30.580Z,90.10
2017-10-14T08:10:58.184Z,90.60
2017-10-14T08:13:25.722Z,90.30
2017-10-14T08:15:53.268Z,90.00
2017-10-14T08:18:20.804Z,88.30
2017-10-14T08:20:48.456Z,87.50
2017-10-14T08:23:16.002Z,86.60
2017-10-14T08:25:43.549Z,86.00
2017-10-14T08:28:11.109Z,85.40
2017-10-14T08:30:39.113Z,85.20
2017-10-14T08:33:06.658Z,85.20
2017-10-14T08:35:35.528Z,84.30
2017-10-14T08:38:03.486Z,83.80
2017-10-14T08:40:31.012Z,83.70
2017-10-14T08:42:58.561Z,83.50
2017-10-14T08:45:26.136Z,82.70
2017-10-14T08:47:53.694Z,83.00
2017-10-14T08:50:21.235Z,82.40
2017-10-14T08:52:48.785Z,82.30
2017-10-14T08:55:16.705Z,81.90
2017-10-14T08:57:44.268Z,81.90
2017-10-14T09:00:11.793Z,82.70
2017-10-14T09:02:39.371Z,81.60
2017-10-14T09:05:06.898Z,80.90
2017-10-14T09:07:34.444Z,81.70
2017-10-14T09:10:01.990Z,81.00
2017-10-14T09:12:29.913Z,80.70
2017-10-14T09:14:57.488Z,80.70
2017-10-14T09:17:25.015Z,80.60
2017-10-14T09:19:52.962Z,79.60
2017-10-14T09:22:20.493Z,79.60
2017-10-14T09:24:48.038Z,80.50
2017-10-14T09:27:15.961Z,80.10
2017-10-14T09:29:43.522Z,80.10
2017-10-14T09:32:11.058Z,78.60
2017-10-14T09:34:38.981Z,78.50
2017-10-14T09:37:06.526Z,78.60
2017-10-14T09:39:34.067Z,78.40
2017-10-14T09:42:01.614Z,77.20
2017-10-14T09:44:29.139Z,77.30
2017-10-14T09:46:57.084Z,78.00
2017-10-14T09:49:24.610Z,78.00
2017-10-14T09:51:52.161Z,77.60
2017-10-14T09:54:20.081Z,76.10
2017-10-14T09:56:47.630Z,76.10
2017-10-14T09:59:15.186Z,76.10
2017-10-14T10:01:43.124Z,76.90
2017-10-14T10:04:10.671Z,76.90
2017-10-14T10:06:38.224Z,76.40
2017-10-14T10:09:05.786Z,76.10
2017-10-14T10:11:33.342Z,76.40
2017-10-14T10:14:00.916Z,75.50
2017-10-14T10:16:28.849Z,75.60
2017-10-14T10:18:56.416Z,75.60
2017-10-14T10:21:23.963Z,74.60
2017-10-14T10:23:51.493Z,74.60
2017-10-14T10:26:19.061Z,74.20
2017-10-14T10:28:46.604Z,74.00
2017-10-14T10:31:14.145Z,73.60
2017-10-14T10:33:42.092Z,73.10
2017-10-14T10:36:09.645Z,74.10
2017-10-14T10:38:37.181Z,73.80
2017-10-14T10:41:04.707Z,73.40
2017-10-14T10:43:32.643Z,74.00
2017-10-14T10:46:00.197Z,74.10
2017-10-14T10:48:28.207Z,72.50
2017-10-14T10:50:55.740Z,72.50
2017-10-14T10:53:23.275Z,73.30
2017-10-14T10:55:50.812Z,73.10
2017-10-14T10:58:18.360Z,73.20
2017-10-14T11:00:45.899Z,72.60
2017-10-14T11:03:13.873Z,72.60
2017-10-14T11:05:41.404Z,72.60
2017-10-14T11:08:08.926Z,72.60
2017-10-14T11:10:36.892Z,71.90
2017-10-14T11:13:04.422Z,71.90
2017-10-14T11:15:32.009Z,71.60
2017-10-14T11:17:59.532Z,70.60
2017-10-14T11:20:27.475Z,71.20
2017-10-14T11:22:55.014Z,71.20
2017-10-14T11:25:22.561Z,71.80
2017-10-14T11:27:50.099Z,71.80
2017-10-14T11:30:17.670Z,72.10
2017-10-14T11:32:45.615Z,71.70
2017-10-14T11:35:13.143Z,71.70
2017-10-14T11:37:40.697Z,71.20
2017-10-14T11:40:08.236Z,70.50
2017-10-14T11:42:35.784Z,70.60
2017-10-14T11:45:03.328Z,70.70
2017-10-14T11:47:31.269Z,70.30
2017-10-14T11:49:58.784Z,70.30
2017-10-14T11:52:26.737Z,70.40
2017-10-14T11:54:54.276Z,70.40
2017-10-14T11:57:21.811Z,71.40
2017-10-14T11:59:49.748Z,71.70
2017-10-14T12:02:17.289Z,71.70
2017-10-14T12:04:44.832Z,71.30
2017-10-14T12:07:12.772Z,70.40
2017-10-14T12:09:40.328Z,70.40
2017-10-14T12:12:07.858Z,70.50
2017-10-14T12:14:35.791Z,70.90
2017-10-14T12:17:03.331Z,70.90
2017-10-14T12:19:30.882Z,70.70
2017-10-14T12:21:58.418Z,70.30
2017-10-14T12:24:25.958Z,69.30
2017-10-14T12:26:53.504Z,69.80
2017-10-14T12:29:21.052Z,70.40
2017-10-14T12:31:48.998Z,69.60
2017-10-14T12:34:16.527Z,69.60
2017-10-14T12:36:44.144Z,70.70
2017-10-14T12:39:11.680Z,71.70
2017-10-14T12:41:39.247Z,71.40
2017-10-14T12:44:06.782Z,71.60
2017-10-14T12:46:34.353Z,71.70
2017-10-14T12:49:01.898Z,71.70
2017-10-14T12:51:29.429Z,71.50
2017-10-14T12:53:57.371Z,70.20
2017-10-14T12:56:24.903Z,70.30
2017-10-14T12:58:52.448Z,71.10
2017-10-14T13:01:19.976Z,71.90
2017-10-14T13:03:47.558Z,71.80
2017-10-14T13:06:15.082Z,71.20
2017-10-14T13:08:42.682Z,70.90
2017-10-14T13:11:10.225Z,69.60
2017-10-14T13:13:37.770Z,68.70
2017-10-14T13:16:05.690Z,67.20
2017-10-14T13:18:33.229Z,67.20
2017-10-14T13:21:01.172Z,67.80
2017-10-14T13:23:28.695Z,67.80
2017-10-14T13:25:56.266Z,67.30
2017-10-14T13:28:23.799Z,67.60
2017-10-14T13:30:51.352Z,69.10
2017-10-14T13:33:18.899Z,68.40
2017-10-14T13:35:46.456Z,68.60
2017-10-14T13:38:13.981Z,69.40
2017-10-14T13:40:41.590Z,70.20
2017-10-14T13:43:09.116Z,71.10
2017-10-14T13:45:36.637Z,71.10
2017-10-14T13:48:04.237Z,70.90
2017-10-14T13:50:31.770Z,71.20
2017-10-14T13:52:59.339Z,71.60
2017-10-14T13:55:27.261Z,71.40
2017-10-14T13:57:54.815Z,71.40
2017-10-14T14:00:22.340Z,71.80
2017-10-14T14:02:49.891Z,69.60
2017-10-14T14:05:17.426Z,69.60
2017-10-14T14:07:44.981Z,69.20
2017-10-14T14:10:13.002Z,69.90
2017-10-14T14:12:41.059Z,69.90
2017-10-14T14:15:08.598Z,70.80
2017-10-14T14:17:36.121Z,70.10
2017-10-14T14:20:03.669Z,70.00
2017-10-14T14:22:31.219Z,70.60
2017-10-14T14:24:59.145Z,71.60
2017-10-14T14:27:26.652Z,71.60
2017-10-14T14:29:54.221Z,71.20
2017-10-14T14:32:21.750Z,71.00
2017-10-14T14:34:49.288Z,71.40
2017-10-14T14:37:17.269Z,71.90
2017-10-14T14:39:45.254Z,72.20
2017-10-14T14:42:12.856Z,72.10
2017-10-14T14:44:40.397Z,71.40
2017-10-14T14:47:07.943Z,71.80
2017-10-14T14:49:35.489Z,71.80
2017-10-14T14:52:03.046Z,71.70
2017-10-14T14:54:30.608Z,71.80
2017-10-14T14:56:58.159Z,72.00
2017-10-14T14:59:26.075Z,72.60
2017-10-14T15:01:53.624Z,72.60
2017-10-14T15:04:21.159Z,73.10
2017-10-14T15:06:48.695Z,73.30
2017-10-14T15:09:16.236Z,73.10
2017-10-14T15:11:43.769Z,73.00
2017-10-14T15:14:11.313Z,72.80
2017-10-14T15:16:38.852Z,72.60
2017-10-14T15:19:06.651Z,72.80
2017-10-14T15:21:34.185Z,73.00
2017-10-14T15:24:02.142Z,72.90
2017-10-14T15:26:29.666Z,72.90
2017-10-14T15:28:57.189Z,73.00
2017-10-14T15:31:24.727Z,73.70
2017-10-14T15:33:52.265Z,73.80
2017-10-14T15:36:19.813Z,74.30
2017-10-14T15:38:47.735Z,74.90
2017-10-14T15:41:15.304Z,74.90
2017-10-14T15:43:42.833Z,74.10
2017-10-14T15:46:10.375Z,74.80
2017-10-14T15:48:37.897Z,76.00
2017-10-14T15:51:05.436Z,76.60
2017-10-14T15:53:32.960Z,76.00
2017-10-14T15:56:00.521Z,75.80
2017-10-14T15:58:28.055Z,76.00
2017-10-14T16:00:55.625Z,76.00
2017-10-14T16:03:23.214Z,76.10
2017-10-14T16:05:51.142Z,77.40
2017-10-14T16:08:18.693Z,77.40
2017-10-14T16:10:46.226Z,78.00
2017-10-14T16:13:13.791Z,78.40
2017-10-14T16:15:41.309Z,78.50
2017-10-14T16:18:08.850Z,79.00
2017-10-14T16:20:36.839Z,79.20
2017-10-14T16:23:04.802Z,79.90
2017-10-14T16:25:32.736Z,80.00
2017-10-14T16:28:00.269Z,80.00
2017-10-14T16:30:28.193Z,81.00
2017-10-14T16:32:55.745Z,80.90
2017-10-14T16:35:23.269Z,81.40
2017-10-14T16:37:50.842Z,81.40
2017-10-14T16:40:18.368Z,81.60
2017-10-14T16:42:46.355Z,82.70
2017-10-14T16:45:13.893Z,82.70
2017-10-14T16:47:41.807Z,82.60
2017-10-14T16:50:09.357Z,82.60
2017-10-14T16:52:36.917Z,82.90
2017-10-14T16:55:04.483Z,83.20
2017-10-14T16:57:32.425Z,83.20
2017-10-14T17:00:00.000Z,83.20
2017-10-14T17:02:27.552Z,83.60
2017-10-14T17:04:55.375Z,83.70
2017-10-14T17:07:22.971Z,84.10
2017-10-14T17:09:50.925Z,84.40
2017-10-14T17:12:18.873Z,85.20
2017-10-14T17:14:46.950Z,85.20
2017-10-14T17:17:14.529Z,85.20
2017-10-14T17:19:42.045Z,85.40
2017-10-14T17:22:09.964Z,85.30
2017-10-14T17:24:37.516Z,85.30
2017-10-14T17:27:06.112Z,85.30
2017-10-14T17:29:33.673Z,86.00
2017-10-14T17:32:01.196Z,86.10
2017-10-14T17:34:28.775Z,86.40
2017-10-14T17:36:56.322Z,86.40
2017-10-14T17:39:23.856Z,86.00
2017-10-14T17:41:51.400Z,86.60
2017-10-14T17:44:18.926Z,87.10
2017-10-14T17:46:46.488Z,87.30
2017-10-14T17:49:14.023Z,87.40
2017-10-14T17:51:41.575Z,87.40
2017-10-14T17:54:09.110Z,87.70
2017-10-14T17:56:36.666Z,88.00
2017-10-14T17:59:04.202Z,88.20
2017-10-14T18:01:31.770Z,88.40
2017-10-14T18:03:59.368Z,88.40
2017-10-14T18:06:27.377Z,88.40
2017-10-14T18:08:54.924Z,88.40
2017-10-14T18:11:23.018Z,88.20
2017-10-14T18:13:50.584Z,88.20
2017-10-14T18:16:18.186Z,88.30
2017-10-14T18:18:45.740Z,88.60
2017-10-14T18:21:13.357Z,88.90
2017-10-14T18:23:40.892Z,88.90
2017-10-14T18:26:08.516Z,88.70
2017-10-14T18:28:36.137Z,88.70
2017-10-14T18:31:04.417Z,88.40
2017-10-14T18:33:31.956Z,88.40
2017-10-14T18:35:59.613Z,88.30
2017-10-14T18:38:27.178Z,88.30
2017-10-14T18:40:54.863Z,88.00
2017-10-14T18:43:22.449Z,88.00
2017-10-14T18:45:50.052Z,88.10
2017-10-14T18:48:17.619Z,87.90
2017-10-14T18:50:45.553Z,87.70
2017-10-14T18:53:13.123Z,87.70
2017-10-14T18:55:40.796Z,87.70
2017-10-14T18:58:08.761Z,86.70
2017-10-14T19:00:36.302Z,86.70
2017-10-14T19:03:03.835Z,86.60
2017-10-14T19:05:31.424Z,86.80
2017-10-14T19:07:59.336Z,87.50
2017-10-14T19:10:27.011Z,87.50
2017-10-14T19:12:54.550Z,88.00
2017-10-14T19:15:22.501Z,89.00
2017-10-14T19:17:50.040Z,89.00
2017-10-14T19:20:17.604Z,89.10
2017-10-14T19:22:45.152Z,89.30
2017-10-14T19:25:13.093Z,89.60
2017-10-14T19:27:40.646Z,89.60
2017-10-14T19:30:08.176Z,89.50
2017-10-14T19:32:35.699Z,89.40
2017-10-14T19:35:03.378Z,88.90
2017-10-14T19:37:30.916Z,88.20
2017-10-14T19:39:58.637Z,88.00
2017-10-14T19:42:26.163Z,88.20
2017-10-14T19:44:53.818Z,89.00
2017-10-14T19:47:21.388Z,89.80
2017-10-14T19:49:49.103Z,90.70
2017-10-14T19:52:16.649Z,90.90
2017-10-14T19:54:44.257Z,90.90
2017-10-14T19:57:11.801Z,89.30
2017-10-14T19:59:39.414Z,88.40
2017-10-14T20:02:06.960Z,89.00
2017-10-14T20:04:34.602Z,89.30
2017-10-14T20:07:02.173Z,90.10
2017-10-14T20:09:29.776Z,90.80
2017-10-14T20:11:57.308Z,91.20
2017-10-14T20:14:25.324Z,91.30
2017-10-14T20:16:52.863Z,91.30
2017-10-14T20:19:20.925Z,89.80
2017-10-14T20:21:48.449Z,89.80
2017-10-14T20:24:16.089Z,89.30
2017-10-14T20:26:44.008Z,89.50
2017-10-14T20:29:11.656Z,89.40
2017-10-14T20:31:39.186Z,90.30
2017-10-14T20:34:06.881Z,91.20
2017-10-14T20:36:34.406Z,92.00
2017-10-14T20:39:02.055Z,92.30
2017-10-14T20:41:29.576Z,92.00
2017-10-14T20:43:57.238Z,90.90
2017-10-14T20:46:24.771Z,89.90
2017-10-14T20:48:52.390Z,90.10
2017-10-14T20:51:19.993Z,91.20
2017-10-14T20:53:47.634Z,91.00
2017-10-14T20:56:15.170Z,89.90
2017-10-14T20:58:42.728Z,89.60
2017-10-14T21:01:10.293Z,89.70
2017-10-14T21:03:37.832Z,90.40
2017-10-14T21:06:05.401Z,91.30
2017-10-14T21:08:32.931Z,92.40
2017-10-14T21:11:00.459Z,93.30
2017-10-14T21:13:27.995Z,93.50
2017-10-14T21:15:55.516Z,93.20
2017-10-14T21:18:23.129Z,91.00
2017-10-14T21:20:50.690Z,91.00
2017-10-14T21:23:18.232Z,91.30
2017-10-14T21:25:46.168Z,92.40
2017-10-14T21:28:13.724Z,92.40
2017-10-14T21:30:41.262Z,91.00
2017-10-14T21:33:08.793Z,90.10
2017-10-14T21:35:36.340Z,90.20
2017-10-14T21:38:03.955Z,90.80
2017-10-14T21:40:31.893Z,93.00
2017-10-14T21:42:59.439Z,93.00
2017-10-14T21:45:27.042Z,94.00
2017-10-14T21:47:54.621Z,94.90
2017-10-14T21:50:22.275Z,95.10
2017-10-14T21:52:49.830Z,94.90
2017-10-14T21:55:17.372Z,94.90
2017-10-14T21:57:45.340Z,94.70
2017-10-14T22:00:12.871Z,94.70
2017-10-14T22:02:40.430Z,94.70
2017-10-14T22:05:08.089Z,94.50
2017-10-14T22:07:35.621Z,94.10
2017-10-14T22:10:03.193Z,93.80
2017-10-14T22:12:30.748Z,93.80
2017-10-14T22:14:58.336Z,93.60
2017-10-14T22:17:25.865Z,94.00
2017-10-14T22:19:53.431Z,93.80
2017-10-14T22:22:20.976Z,93.60
2017-10-14T22:24:48.521Z,93.60
2017-10-14T22:27:16.958Z,93.90
2017-10-14T22:29:44.521Z,94.20
2017-10-14T22:32:12.044Z,93.90
2017-10-14T22:34:39.627Z,93.70
2017-10-14T22:37:07.158Z,93.80
2017-10-14T22:39:34.689Z,94.10
2017-10-14T22:42:02.643Z,94.40
2017-10-14T22:44:30.178Z,94.40
2017-10-14T22:46:57.743Z,94.50
2017-10-14T22:49:25.306Z,94.70
2017-10-14T22:51:52.868Z,94.50
2017-10-14T22:54:20.785Z,94.30
2017-10-14T22:56:48.522Z,94.30
2017-10-14T22:59:16.448Z,94.60
2017-10-14T23:01:43.976Z,94.60
2017-10-14T23:04:11.514Z,94.40
2017-10-14T23:06:39.061Z,94.40
2017-10-14T23:09:06.682Z,94.50
2017-10-14T23:11:34.613Z,94.80
2017-10-14T23:14:02.149Z,94.80
2017-10-14T23:16:30.087Z,94.70
2017-10-14T23:18:57.653Z,94.70
2017-10-14T23:21:25.178Z,94.90
2017-10-14T23:23:52.723Z,94.70
2017-10-14T23:26:20.297Z,94.50
2017-10-14T23:28:47.829Z,94.20
2017-10-14T23:31:15.381Z,94.00
2017-10-14T23:33:42.901Z,93.70
2017-10-14T23:36:10.454Z,93.70
2017-10-14T23:38:37.981Z,93.80
2017-10-14T23:41:05.532Z,93.50
2017-10-14T23:43:33.513Z,93.30
2017-10-14T23:46:01.506Z,93.00
2017-10-14T23:48:29.058Z,93.00
2017-10-14T23:50:56.596Z,92.90
2017-10-14T23:53:24.155Z,92.90
2017-10-14T23:55:51.701Z,92.80
2017-10-14T23:58:19.228Z,92.60
